createdAt,value
2019-06-15T00:02:18.862Z,0.50
2019-06-15T00:07:22.974Z,1.07
2019-06-15T00:12:27.383Z,1.07
2019-06-15T00:17:31.456Z,2.20
2019-06-15T00:22:35.526Z,1.27
2019-06-15T00:27:39.892Z,0.60
2019-06-15T00:32:44.026Z,0.73
2019-06-15T00:37:48.090Z,1.33
2019-06-15T00:42:54.125Z,0.60
2019-06-15T00:48:00.654Z,1.83
2019-06-15T00:53:05.522Z,1.67
2019-06-15T00:58:10.631Z,1.30
2019-06-15T01:03:15.487Z,0.53
2019-06-15T01:08:19.710Z,1.27
2019-06-15T01:13:24.443Z,1.13
2019-06-15T01:18:30.688Z,1.10
2019-06-15T01:23:34.855Z,0.77
2019-06-15T01:28:39.427Z,0.83
2019-06-15T01:33:43.593Z,1.23
2019-06-15T01:38:47.638Z,1.33
2019-06-15T01:43:51.707Z,0.90
2019-06-15T01:48:55.783Z,0.80
2019-06-15T01:54:00.750Z,1.40
2019-06-15T01:59:04.946Z,1.57
2019-06-15T02:04:10.060Z,0.83
2019-06-15T02:09:14.209Z,1.13
2019-06-15T02:14:18.250Z,1.43
2019-06-15T02:19:22.246Z,1.60
2019-06-15T02:24:26.625Z,1.17
2019-06-15T02:29:30.958Z,1.37
2019-06-15T02:34:34.961Z,1.27
2019-06-15T02:39:39.346Z,1.03
2019-06-15T02:44:43.763Z,0.87
2019-06-15T02:49:48.139Z,2.03
2019-06-15T02:54:52.426Z,1.27
2019-06-15T02:59:56.558Z,1.00
2019-06-15T03:05:00.617Z,1.13
2019-06-15T03:10:04.913Z,1.63
2019-06-15T03:15:10.612Z,1.20
2019-06-15T03:20:15.663Z,2.07
2019-06-15T03:25:19.874Z,1.23
2019-06-15T03:30:24.286Z,2.97
2019-06-15T03:35:29.455Z,1.10
2019-06-15T03:40:33.482Z,1.70
2019-06-15T03:45:37.603Z,1.73
2019-06-15T03:50:41.722Z,1.07
2019-06-15T03:55:46.066Z,1.53
2019-06-15T04:01:19.465Z,1.83
2019-06-15T04:06:23.494Z,1.17
2019-06-15T04:11:29.645Z,1.77
2019-06-15T04:16:50.082Z,2.07
2019-06-15T04:21:56.881Z,1.37
2019-06-15T04:27:01.003Z,1.47
2019-06-15T04:32:05.046Z,1.20
2019-06-15T04:37:09.176Z,0.90
2019-06-15T04:42:13.264Z,0.97
2019-06-15T04:47:17.569Z,1.40
2019-06-15T04:52:24.502Z,1.20
2019-06-15T04:57:28.612Z,1.73
2019-06-15T05:02:32.720Z,1.33
2019-06-15T05:07:36.847Z,2.40
2019-06-15T05:12:41.128Z,0.93
2019-06-15T05:17:46.384Z,1.10
2019-06-15T05:22:50.694Z,1.27
2019-06-15T05:27:54.772Z,1.87
2019-06-15T05:32:58.788Z,1.23
2019-06-15T05:38:02.905Z,0.80
2019-06-15T05:43:06.937Z,2.07
2019-06-15T05:48:11.055Z,0.77
2019-06-15T05:53:15.142Z,1.23
2019-06-15T05:58:19.333Z,1.10
2019-06-15T06:03:23.566Z,1.50
2019-06-15T06:08:27.680Z,0.98
2019-06-15T06:13:31.761Z,1.57
2019-06-15T06:18:36.061Z,1.35
2019-06-15T06:23:40.086Z,0.77
2019-06-15T06:28:56.518Z,1.13
2019-06-15T06:33:50.117Z,1.10
2019-06-15T06:38:54.150Z,0.80
2019-06-15T06:43:58.178Z,1.37
2019-06-15T06:49:02.263Z,1.77
2019-06-15T06:54:06.738Z,0.95
2019-06-15T06:59:10.759Z,1.20
2019-06-15T07:04:14.808Z,1.70
2019-06-15T07:09:18.903Z,0.93
2019-06-15T07:14:23.101Z,1.33
2019-06-15T07:19:27.194Z,0.93
2019-06-15T07:24:31.228Z,0.60
2019-06-15T07:29:35.303Z,0.77
2019-06-15T07:34:39.414Z,1.13
2019-06-15T07:39:43.824Z,1.03
2019-06-15T07:44:47.848Z,2.17
2019-06-15T07:49:51.927Z,1.90
2019-06-15T07:54:55.962Z,1.67
2019-06-15T08:00:00.074Z,1.30
2019-06-15T08:05:09.843Z,1.52
2019-06-15T08:10:14.769Z,1.57
2019-06-15T08:15:19.141Z,1.37
2019-06-15T08:20:27.829Z,2.75
2019-06-15T08:25:31.966Z,0.93
2019-06-15T08:30:42.781Z,1.85
2019-06-15T08:35:46.890Z,1.65
2019-06-15T08:40:51.082Z,1.42
2019-06-15T08:45:55.532Z,1.62
2019-06-15T08:50:59.848Z,1.55
2019-06-15T08:56:09.586Z,1.35
2019-06-15T09:01:13.620Z,1.52
2019-06-15T09:06:17.972Z,1.82
2019-06-15T09:11:22.117Z,1.67
2019-06-15T09:16:26.117Z,1.50
2019-06-15T09:21:30.227Z,1.98
2019-06-15T09:26:34.337Z,2.27
2019-06-15T09:31:38.413Z,1.35
2019-06-15T09:36:42.967Z,1.65
2019-06-15T09:41:47.005Z,2.70
2019-06-15T09:46:51.706Z,2.05
2019-06-15T09:51:55.851Z,1.92
2019-06-15T09:56:59.906Z,1.67
2019-06-15T10:02:10.890Z,1.15
2019-06-15T10:07:14.991Z,1.65
2019-06-15T10:12:19.307Z,1.57
2019-06-15T10:17:23.363Z,2.17
2019-06-15T10:22:27.402Z,1.82
2019-06-15T10:27:31.524Z,1.35
2019-06-15T10:32:35.651Z,1.30
2019-06-15T10:37:39.806Z,1.45
2019-06-15T10:42:43.872Z,1.57
2019-06-15T10:47:47.913Z,1.80
2019-06-15T10:52:51.990Z,2.10
2019-06-15T10:57:56.076Z,1.42
2019-06-15T11:03:03.627Z,2.02
2019-06-15T11:08:10.564Z,1.60
2019-06-15T11:13:14.820Z,1.12
2019-06-15T11:18:19.120Z,1.85
2019-06-15T11:23:23.478Z,1.37
2019-06-15T11:28:27.608Z,1.80
2019-06-15T11:33:31.696Z,1.60
2019-06-15T11:38:35.740Z,1.57
2019-06-15T11:43:39.739Z,1.85
2019-06-15T11:48:43.845Z,1.40
2019-06-15T11:53:47.947Z,1.85
2019-06-15T11:58:52.004Z,1.65
2019-06-15T12:03:56.791Z,0.90
2019-06-15T12:09:00.924Z,1.20
2019-06-15T12:14:05.156Z,1.17
2019-06-15T12:19:09.447Z,2.25
2019-06-15T12:24:13.549Z,1.92
2019-06-15T12:29:17.920Z,1.50
2019-06-15T12:34:22.048Z,1.55
2019-06-15T12:39:26.142Z,1.32
2019-06-15T12:44:30.193Z,1.12
2019-06-15T12:49:34.195Z,0.70
2019-06-15T12:54:38.683Z,1.07
2019-06-15T12:59:42.804Z,1.07
2019-06-15T13:04:46.913Z,0.80
2019-06-15T13:09:50.938Z,0.90
2019-06-15T13:14:55.007Z,0.88
2019-06-15T13:19:59.114Z,1.60
2019-06-15T13:25:03.490Z,0.65
2019-06-15T13:30:09.998Z,0.82
2019-06-15T13:35:14.214Z,1.27
2019-06-15T13:40:18.606Z,0.60
2019-06-15T13:45:23.712Z,0.50
2019-06-15T13:50:27.837Z,0.50
2019-06-15T13:55:32.425Z,0.55
2019-06-15T14:00:36.511Z,0.50
2019-06-15T14:05:40.603Z,0.80
2019-06-15T14:10:44.732Z,1.00
2019-06-15T14:15:48.902Z,0.28
2019-06-15T14:20:52.955Z,0.80
2019-06-15T14:25:57.066Z,0.90
2019-06-15T14:31:02.390Z,0.80
2019-06-15T14:36:06.996Z,1.32
2019-06-15T14:41:11.246Z,0.55
2019-06-15T14:46:15.303Z,1.15
2019-06-15T14:51:19.450Z,0.78
2019-06-15T14:56:23.580Z,0.50
2019-06-15T15:01:27.705Z,1.32
2019-06-15T15:06:31.979Z,0.50
2019-06-15T15:11:36.789Z,0.70
2019-06-15T15:16:41.156Z,0.93
2019-06-15T15:21:46.144Z,0.80
2019-06-15T15:26:50.453Z,0.98
2019-06-15T15:31:57.394Z,0.78
2019-06-15T15:37:00.849Z,0.68
2019-06-15T15:42:06.591Z,0.50
2019-06-15T15:47:11.219Z,0.47
2019-06-15T15:52:17.088Z,0.93
2019-06-15T15:57:21.486Z,1.00
2019-06-15T16:02:35.531Z,0.93
2019-06-15T16:07:31.413Z,0.98
2019-06-15T16:12:36.139Z,0.80
2019-06-15T16:17:40.349Z,0.60
2019-06-15T16:22:45.927Z,0.47
2019-06-15T16:27:50.225Z,0.60
2019-06-15T16:33:03.129Z,1.60
2019-06-15T16:38:00.237Z,0.40
2019-06-15T16:43:06.931Z,0.42
2019-06-15T16:48:10.377Z,0.25
2019-06-15T16:53:16.890Z,0.60
2019-06-15T16:58:21.032Z,0.77
2019-06-15T17:03:29.018Z,0.60
2019-06-15T17:08:31.612Z,0.63
2019-06-15T17:13:37.152Z,0.40
2019-06-15T17:18:41.164Z,0.60
2019-06-15T17:23:46.752Z,0.93
2019-06-15T17:28:51.243Z,0.80
2019-06-15T17:33:56.350Z,0.40
2019-06-15T17:39:01.213Z,0.20
2019-06-15T17:44:06.118Z,0.30
2019-06-15T17:49:10.501Z,0.37
2019-06-15T17:54:16.868Z,0.97
2019-06-15T17:59:22.371Z,0.87
2019-06-15T18:04:26.571Z,0.30
2019-06-15T18:09:30.590Z,0.30
2019-06-15T18:14:36.780Z,0.20
2019-06-15T18:19:40.517Z,0.27
2019-06-15T18:24:46.691Z,0.40
2019-06-15T18:29:50.889Z,0.40
2019-06-15T18:34:56.096Z,0.30
2019-06-15T18:40:01.029Z,1.10
2019-06-15T18:45:06.852Z,0.40
2019-06-15T18:50:11.492Z,0.47
2019-06-15T18:55:15.516Z,0.63
2019-06-15T19:00:19.719Z,0.20
2019-06-15T19:05:26.365Z,0.80
2019-06-15T19:10:35.960Z,0.30
2019-06-15T19:15:40.177Z,0.40
2019-06-15T19:20:44.261Z,0.10
2019-06-15T19:25:48.698Z,0.43
2019-06-15T19:30:52.786Z,0.37
2019-06-15T19:35:57.439Z,0.23
2019-06-15T19:41:01.517Z,1.00
2019-06-15T19:46:06.730Z,0.30
2019-06-15T19:51:11.262Z,0.83
2019-06-15T19:56:17.407Z,0.20
2019-06-15T20:01:22.466Z,0.20
2019-06-15T20:06:27.358Z,0.43
2019-06-15T20:11:31.546Z,0.33
2019-06-15T20:16:36.204Z,0.90
2019-06-15T20:21:40.356Z,0.50
2019-06-15T20:26:44.403Z,0.60
2019-06-15T20:31:49.115Z,0.23
2019-06-15T20:36:54.929Z,0.40
2019-06-15T20:42:00.373Z,0.57
2019-06-15T20:47:06.563Z,0.40
2019-06-15T20:52:12.868Z,0.30
2019-06-15T20:57:18.071Z,0.67
2019-06-15T21:02:26.872Z,0.20
2019-06-15T21:07:31.501Z,0.20
2019-06-15T21:12:37.544Z,0.60
2019-06-15T21:17:41.682Z,0.10
2019-06-15T21:22:46.481Z,0.10
2019-06-15T21:27:51.041Z,0.30
2019-06-15T21:32:55.976Z,0.53
2019-06-15T21:38:00.199Z,0.30
2019-06-15T21:43:06.811Z,0.10
2019-06-15T21:48:10.109Z,0.40
2019-06-15T21:53:16.157Z,0.10
2019-06-15T21:58:19.907Z,0.60
2019-06-15T22:03:26.478Z,0.10
2019-06-15T22:08:33.294Z,0.10
2019-06-15T22:13:40.602Z,0.10
2019-06-15T22:18:47.517Z,0.10
2019-06-15T22:23:52.425Z,0.10
2019-06-15T22:28:57.187Z,0.10
2019-06-15T22:34:02.438Z,0.37
2019-06-15T22:39:07.191Z,0.10
2019-06-15T22:44:12.775Z,0.10
2019-06-15T22:49:17.103Z,0.20
2019-06-15T22:54:21.129Z,0.20
2019-06-15T22:59:26.039Z,0.20
2019-06-15T23:04:30.077Z,0.10
2019-06-15T23:09:36.069Z,0.00
2019-06-15T23:14:40.281Z,0.00
2019-06-15T23:19:46.121Z,0.20
2019-06-15T23:24:50.570Z,0.17
2019-06-15T23:29:56.878Z,0.10
2019-06-15T23:35:00.313Z,0.00
2019-06-15T23:40:07.434Z,0.10
2019-06-15T23:45:11.548Z,0.10
2019-06-15T23:50:16.947Z,0.10
2019-06-15T23:55:21.166Z,0.20
